EKHO weather

Lindtorp Airport
Holstebro, Central Jutland, Denmark

Public forecast

Using degrees Celsius for public forecast. Weather courtesy of forecast.io.

Closest aviation weather report (METAR) to Lindtorp Airport

Closest report is Karup Airport, 23.5 nm (43.5 km) ESE. Retrieved 2020/01/23 04:26 UTC (25 minutes ago):

EKKA 230426Z AUTO 25008KT 9999 OVC009/// 06/05 Q1030

Closest aviation forecast (TAF) to Lindtorp Airport

Closest forecast is Karup Airport, 23.5 nm (43.5 km) ESE. Retrieved 2020-01-23 03:30 UTC (1 hour ago):

TAF EKKA 230214Z 2303/2403 25008KT 9999 SCT015 TEMPO 2303/2305 2000 BR BKN008 BECMG 2305/2307 1200 BR BKN002 TEMPO 2307/2316 3000 -DZ BKN006 BECMG 2316/2318 6000 NSW BKN015 TEMPO 2318/2403 3000 -DZ BR BKN006